sensor_id;sensor_type;location;lat;lon;timestamp;P1;durP1;ratioP1;P2;durP2;ratioP2
11747;SDS011;5931;48.832;9.072;2023-12-20T00:01:38;1.73;;;1.50;;
11747;SDS011;5931;48.832;9.072;2023-12-20T00:04:03;2.30;;;1.50;;
11747;SDS011;5931;48.832;9.072;2023-12-20T00:06:30;2.07;;;1.70;;
11747;SDS011;5931;48.832;9.072;2023-12-20T00:08:56;1.83;;;1.70;;
11747;SDS011;5931;48.832;9.072;2023-12-20T00:11:23;2.20;;;1.70;;
11747;SDS011;5931;48.832;9.072;2023-12-20T00:13:49;2.97;;;2.00;;
11747;SDS011;5931;48.832;9.072;2023-12-20T00:16:15;1.83;;;1.63;;
11747;SDS011;5931;48.832;9.072;2023-12-20T00:18:41;2.07;;;1.50;;
11747;SDS011;5931;48.832;9.072;2023-12-20T00:21:06;2.30;;;1.50;;
11747;SDS011;5931;48.832;9.072;2023-12-20T00:23:33;2.60;;;1.60;;
11747;SDS011;5931;48.832;9.072;2023-12-20T00:25:58;1.63;;;1.50;;
11747;SDS011;5931;48.832;9.072;2023-12-20T00:28:24;2.40;;;1.70;;
11747;SDS011;5931;48.832;9.072;2023-12-20T00:30:50;2.50;;;2.00;;
11747;SDS011;5931;48.832;9.072;2023-12-20T00:33:16;2.03;;;1.50;;
11747;SDS011;5931;48.832;9.072;2023-12-20T00:35:42;3.70;;;2.03;;
11747;SDS011;5931;48.832;9.072;2023-12-20T00:38:07;2.63;;;1.70;;
11747;SDS011;5931;48.832;9.072;2023-12-20T00:40:34;2.00;;;1.50;;
11747;SDS011;5931;48.832;9.072;2023-12-20T00:43:00;3.97;;;1.70;;
11747;SDS011;5931;48.832;9.072;2023-12-20T00:45:26;2.53;;;2.03;;
11747;SDS011;5931;48.832;9.072;2023-12-20T00:47:51;2.33;;;1.60;;
11747;SDS011;5931;48.832;9.072;2023-12-20T00:50:17;2.23;;;1.90;;
11747;SDS011;5931;48.832;9.072;2023-12-20T00:52:43;2.77;;;1.87;;
11747;SDS011;5931;48.832;9.072;2023-12-20T00:55:09;3.60;;;1.97;;
11747;SDS011;5931;48.832;9.072;2023-12-20T00:57:35;2.50;;;1.60;;
11747;SDS011;5931;48.832;9.072;2023-12-20T01:00:00;2.90;;;1.93;;
11747;SDS011;5931;48.832;9.072;2023-12-20T01:02:26;2.60;;;1.80;;
11747;SDS011;5931;48.832;9.072;2023-12-20T01:04:52;2.50;;;1.87;;
11747;SDS011;5931;48.832;9.072;2023-12-20T01:07:18;2.37;;;1.83;;
11747;SDS011;5931;48.832;9.072;2023-12-20T01:09:44;2.27;;;1.90;;
11747;SDS011;5931;48.832;9.072;2023-12-20T01:12:10;4.07;;;1.60;;
11747;SDS011;5931;48.832;9.072;2023-12-20T01:14:35;6.03;;;2.00;;
11747;SDS011;5931;48.832;9.072;2023-12-20T01:17:01;2.13;;;1.93;;
11747;SDS011;5931;48.832;9.072;2023-12-20T01:19:27;2.53;;;1.60;;
11747;SDS011;5931;48.832;9.072;2023-12-20T01:21:54;3.53;;;2.30;;
11747;SDS011;5931;48.832;9.072;2023-12-20T01:24:20;3.60;;;2.33;;
11747;SDS011;5931;48.832;9.072;2023-12-20T01:26:46;2.50;;;2.17;;
11747;SDS011;5931;48.832;9.072;2023-12-20T01:29:12;3.00;;;2.27;;
11747;SDS011;5931;48.832;9.072;2023-12-20T01:31:39;2.60;;;1.90;;
11747;SDS011;5931;48.832;9.072;2023-12-20T01:34:06;2.47;;;2.27;;
11747;SDS011;5931;48.832;9.072;2023-12-20T01:36:31;2.33;;;1.60;;
11747;SDS011;5931;48.832;9.072;2023-12-20T01:38:57;2.03;;;1.83;;
11747;SDS011;5931;48.832;9.072;2023-12-20T01:41:23;3.50;;;2.00;;
11747;SDS011;5931;48.832;9.072;2023-12-20T01:43:49;2.60;;;1.70;;
11747;SDS011;5931;48.832;9.072;2023-12-20T01:46:15;3.20;;;2.23;;
11747;SDS011;5931;48.832;9.072;2023-12-20T01:48:41;3.80;;;2.17;;
11747;SDS011;5931;48.832;9.072;2023-12-20T01:51:07;3.47;;;2.00;;
11747;SDS011;5931;48.832;9.072;2023-12-20T01:53:33;2.13;;;1.80;;
11747;SDS011;5931;48.832;9.072;2023-12-20T01:56:00;2.60;;;1.80;;
11747;SDS011;5931;48.832;9.072;2023-12-20T01:58:26;2.03;;;1.70;;
11747;SDS011;5931;48.832;9.072;2023-12-20T02:00:53;3.20;;;2.10;;
11747;SDS011;5931;48.832;9.072;2023-12-20T02:03:19;2.37;;;1.90;;
11747;SDS011;5931;48.832;9.072;2023-12-20T02:05:46;4.43;;;1.90;;
11747;SDS011;5931;48.832;9.072;2023-12-20T02:08:13;1.97;;;1.77;;
11747;SDS011;5931;48.832;9.072;2023-12-20T02:10:39;3.93;;;2.37;;
11747;SDS011;5931;48.832;9.072;2023-12-20T02:13:06;3.10;;;1.83;;
11747;SDS011;5931;48.832;9.072;2023-12-20T02:15:31;2.30;;;1.87;;
11747;SDS011;5931;48.832;9.072;2023-12-20T02:17:57;2.60;;;1.90;;
11747;SDS011;5931;48.832;9.072;2023-12-20T02:20:24;3.90;;;2.60;;
11747;SDS011;5931;48.832;9.072;2023-12-20T02:22:50;2.20;;;1.93;;
11747;SDS011;5931;48.832;9.072;2023-12-20T02:25:16;3.60;;;2.40;;
11747;SDS011;5931;48.832;9.072;2023-12-20T02:27:42;2.27;;;1.80;;
11747;SDS011;5931;48.832;9.072;2023-12-20T02:30:08;1.67;;;1.27;;
11747;SDS011;5931;48.832;9.072;2023-12-20T02:32:35;1.30;;;1.10;;
11747;SDS011;5931;48.832;9.072;2023-12-20T02:35:01;1.00;;;0.90;;
11747;SDS011;5931;48.832;9.072;2023-12-20T02:37:27;1.00;;;0.70;;
11747;SDS011;5931;48.832;9.072;2023-12-20T02:39:52;0.97;;;0.70;;
11747;SDS011;5931;48.832;9.072;2023-12-20T02:42:18;0.97;;;0.60;;
11747;SDS011;5931;48.832;9.072;2023-12-20T02:44:44;0.90;;;0.70;;
11747;SDS011;5931;48.832;9.072;2023-12-20T02:47:10;1.67;;;1.20;;
11747;SDS011;5931;48.832;9.072;2023-12-20T02:49:36;1.10;;;0.90;;
11747;SDS011;5931;48.832;9.072;2023-12-20T02:52:02;1.10;;;0.90;;
11747;SDS011;5931;48.832;9.072;2023-12-20T02:54:28;1.57;;;1.20;;
11747;SDS011;5931;48.832;9.072;2023-12-20T02:56:53;1.20;;;0.80;;
11747;SDS011;5931;48.832;9.072;2023-12-20T02:59:20;1.00;;;0.70;;
11747;SDS011;5931;48.832;9.072;2023-12-20T03:01:46;1.00;;;0.77;;
11747;SDS011;5931;48.832;9.072;2023-12-20T03:04:12;1.00;;;0.80;;
11747;SDS011;5931;48.832;9.072;2023-12-20T03:06:38;1.25;;;0.88;;
11747;SDS011;5931;48.832;9.072;2023-12-20T03:09:04;1.30;;;0.80;;
11747;SDS011;5931;48.832;9.072;2023-12-20T03:11:30;1.13;;;0.90;;
11747;SDS011;5931;48.832;9.072;2023-12-20T03:13:56;1.10;;;0.80;;
11747;SDS011;5931;48.832;9.072;2023-12-20T03:16:23;1.05;;;0.75;;
11747;SDS011;5931;48.832;9.072;2023-12-20T03:18:49;1.00;;;0.80;;
11747;SDS011;5931;48.832;9.072;2023-12-20T03:21:15;1.00;;;0.80;;
11747;SDS011;5931;48.832;9.072;2023-12-20T03:23:41;1.00;;;0.70;;
11747;SDS011;5931;48.832;9.072;2023-12-20T03:26:07;1.30;;;0.90;;
11747;SDS011;5931;48.832;9.072;2023-12-20T03:28:33;1.00;;;0.80;;
11747;SDS011;5931;48.832;9.072;2023-12-20T03:30:59;1.73;;;0.90;;
11747;SDS011;5931;48.832;9.072;2023-12-20T03:33:25;1.30;;;0.80;;
11747;SDS011;5931;48.832;9.072;2023-12-20T03:35:51;1.00;;;0.90;;
11747;SDS011;5931;48.832;9.072;2023-12-20T03:38:17;1.00;;;0.80;;
11747;SDS011;5931;48.832;9.072;2023-12-20T03:40:43;1.00;;;0.80;;
11747;SDS011;5931;48.832;9.072;2023-12-20T03:43:09;1.20;;;0.80;;
11747;SDS011;5931;48.832;9.072;2023-12-20T03:45:35;2.10;;;0.87;;
11747;SDS011;5931;48.832;9.072;2023-12-20T03:48:00;1.50;;;1.00;;
11747;SDS011;5931;48.832;9.072;2023-12-20T03:50:26;1.10;;;0.70;;
11747;SDS011;5931;48.832;9.072;2023-12-20T03:52:52;1.00;;;0.80;;
11747;SDS011;5931;48.832;9.072;2023-12-20T03:55:18;1.20;;;0.90;;
11747;SDS011;5931;48.832;9.072;2023-12-20T03:57:44;1.00;;;0.70;;
11747;SDS011;5931;48.832;9.072;2023-12-20T04:00:10;1.10;;;0.70;;
11747;SDS011;5931;48.832;9.072;2023-12-20T04:02:42;1.00;;;0.80;;
11747;SDS011;5931;48.832;9.072;2023-12-20T04:05:08;1.20;;;0.80;;
11747;SDS011;5931;48.832;9.072;2023-12-20T04:07:35;1.10;;;0.80;;
11747;SDS011;5931;48.832;9.072;2023-12-20T04:10:02;1.00;;;0.70;;
11747;SDS011;5931;48.832;9.072;2023-12-20T04:12:29;1.10;;;0.90;;
11747;SDS011;5931;48.832;9.072;2023-12-20T04:14:56;1.00;;;0.75;;
11747;SDS011;5931;48.832;9.072;2023-12-20T04:17:22;1.15;;;0.85;;
11747;SDS011;5931;48.832;9.072;2023-12-20T04:19:48;1.00;;;0.80;;
11747;SDS011;5931;48.832;9.072;2023-12-20T04:22:15;1.00;;;0.80;;
11747;SDS011;5931;48.832;9.072;2023-12-20T04:24:41;1.00;;;0.70;;
11747;SDS011;5931;48.832;9.072;2023-12-20T04:27:09;1.10;;;0.90;;
11747;SDS011;5931;48.832;9.072;2023-12-20T04:29:36;1.20;;;0.90;;
11747;SDS011;5931;48.832;9.072;2023-12-20T04:32:02;1.00;;;0.77;;
11747;SDS011;5931;48.832;9.072;2023-12-20T04:34:28;1.00;;;0.75;;
11747;SDS011;5931;48.832;9.072;2023-12-20T04:36:54;1.20;;;0.80;;
11747;SDS011;5931;48.832;9.072;2023-12-20T04:39:20;1.50;;;0.77;;
11747;SDS011;5931;48.832;9.072;2023-12-20T04:41:46;1.00;;;0.80;;
11747;SDS011;5931;48.832;9.072;2023-12-20T04:44:13;1.00;;;0.80;;
11747;SDS011;5931;48.832;9.072;2023-12-20T04:46:39;1.00;;;0.70;;
11747;SDS011;5931;48.832;9.072;2023-12-20T04:49:05;1.10;;;1.00;;
11747;SDS011;5931;48.832;9.072;2023-12-20T04:51:34;1.27;;;0.85;;
11747;SDS011;5931;48.832;9.072;2023-12-20T04:54:00;1.10;;;0.90;;
11747;SDS011;5931;48.832;9.072;2023-12-20T04:56:26;1.10;;;0.80;;
11747;SDS011;5931;48.832;9.072;2023-12-20T04:58:52;1.20;;;0.80;;
11747;SDS011;5931;48.832;9.072;2023-12-20T05:01:18;1.17;;;0.87;;
11747;SDS011;5931;48.832;9.072;2023-12-20T05:03:43;1.10;;;0.90;;
11747;SDS011;5931;48.832;9.072;2023-12-20T05:06:10;1.20;;;1.00;;
11747;SDS011;5931;48.832;9.072;2023-12-20T05:08:36;1.77;;;0.90;;
11747;SDS011;5931;48.832;9.072;2023-12-20T05:11:02;1.00;;;0.80;;
11747;SDS011;5931;48.832;9.072;2023-12-20T05:13:28;1.40;;;1.00;;
11747;SDS011;5931;48.832;9.072;2023-12-20T05:15:54;1.23;;;0.90;;
11747;SDS011;5931;48.832;9.072;2023-12-20T05:18:20;1.10;;;0.83;;
11747;SDS011;5931;48.832;9.072;2023-12-20T05:20:47;1.10;;;1.00;;
11747;SDS011;5931;48.832;9.072;2023-12-20T05:23:12;1.30;;;1.10;;
11747;SDS011;5931;48.832;9.072;2023-12-20T05:25:39;1.00;;;0.77;;
11747;SDS011;5931;48.832;9.072;2023-12-20T05:28:05;1.10;;;0.90;;
11747;SDS011;5931;48.832;9.072;2023-12-20T05:30:31;1.57;;;1.07;;
11747;SDS011;5931;48.832;9.072;2023-12-20T05:32:56;1.00;;;0.90;;
11747;SDS011;5931;48.832;9.072;2023-12-20T05:35:22;1.10;;;0.90;;
11747;SDS011;5931;48.832;9.072;2023-12-20T05:37:49;2.27;;;1.30;;
11747;SDS011;5931;48.832;9.072;2023-12-20T05:40:15;1.07;;;0.90;;
11747;SDS011;5931;48.832;9.072;2023-12-20T05:42:41;1.33;;;1.00;;
11747;SDS011;5931;48.832;9.072;2023-12-20T05:45:07;1.10;;;0.90;;
11747;SDS011;5931;48.832;9.072;2023-12-20T05:47:33;1.17;;;1.00;;
11747;SDS011;5931;48.832;9.072;2023-12-20T05:49:58;1.30;;;1.03;;
11747;SDS011;5931;48.832;9.072;2023-12-20T05:52:24;1.10;;;0.97;;
11747;SDS011;5931;48.832;9.072;2023-12-20T05:54:50;1.00;;;0.83;;
11747;SDS011;5931;48.832;9.072;2023-12-20T05:57:16;1.20;;;0.90;;
11747;SDS011;5931;48.832;9.072;2023-12-20T05:59:42;1.40;;;1.03;;
11747;SDS011;5931;48.832;9.072;2023-12-20T06:02:07;1.40;;;0.93;;
11747;SDS011;5931;48.832;9.072;2023-12-20T06:04:33;1.10;;;1.00;;
11747;SDS011;5931;48.832;9.072;2023-12-20T06:06:59;1.80;;;1.30;;
11747;SDS011;5931;48.832;9.072;2023-12-20T06:09:28;1.43;;;1.10;;
11747;SDS011;5931;48.832;9.072;2023-12-20T06:11:53;2.37;;;1.10;;
11747;SDS011;5931;48.832;9.072;2023-12-20T06:14:19;1.30;;;1.20;;
11747;SDS011;5931;48.832;9.072;2023-12-20T06:16:45;1.40;;;1.10;;
11747;SDS011;5931;48.832;9.072;2023-12-20T06:19:11;1.30;;;0.90;;
11747;SDS011;5931;48.832;9.072;2023-12-20T06:21:37;1.60;;;1.20;;
11747;SDS011;5931;48.832;9.072;2023-12-20T06:24:03;1.10;;;0.80;;
11747;SDS011;5931;48.832;9.072;2023-12-20T06:26:29;2.40;;;1.30;;
11747;SDS011;5931;48.832;9.072;2023-12-20T06:28:55;6.00;;;2.67;;
11747;SDS011;5931;48.832;9.072;2023-12-20T06:31:21;5.20;;;3.30;;
11747;SDS011;5931;48.832;9.072;2023-12-20T06:33:47;3.70;;;2.30;;
11747;SDS011;5931;48.832;9.072;2023-12-20T06:36:14;2.63;;;2.13;;
11747;SDS011;5931;48.832;9.072;2023-12-20T06:38:40;8.33;;;2.47;;
11747;SDS011;5931;48.832;9.072;2023-12-20T06:41:07;2.43;;;1.90;;
11747;SDS011;5931;48.832;9.072;2023-12-20T06:43:33;4.43;;;2.17;;
11747;SDS011;5931;48.832;9.072;2023-12-20T06:46:00;2.50;;;1.93;;
11747;SDS011;5931;48.832;9.072;2023-12-20T06:48:26;1.93;;;1.53;;
11747;SDS011;5931;48.832;9.072;2023-12-20T06:50:52;2.40;;;1.80;;
11747;SDS011;5931;48.832;9.072;2023-12-20T06:53:17;2.63;;;2.30;;
11747;SDS011;5931;48.832;9.072;2023-12-20T06:55:43;3.37;;;1.90;;
11747;SDS011;5931;48.832;9.072;2023-12-20T06:58:09;3.33;;;2.93;;
11747;SDS011;5931;48.832;9.072;2023-12-20T07:00:35;4.13;;;2.43;;
11747;SDS011;5931;48.832;9.072;2023-12-20T07:03:03;3.90;;;2.80;;
11747;SDS011;5931;48.832;9.072;2023-12-20T07:05:29;3.17;;;2.33;;
11747;SDS011;5931;48.832;9.072;2023-12-20T07:07:55;5.43;;;3.30;;
11747;SDS011;5931;48.832;9.072;2023-12-20T07:10:21;3.90;;;3.20;;
11747;SDS011;5931;48.832;9.072;2023-12-20T07:12:47;3.47;;;2.60;;
11747;SDS011;5931;48.832;9.072;2023-12-20T07:15:14;4.63;;;2.90;;
11747;SDS011;5931;48.832;9.072;2023-12-20T07:17:39;6.67;;;2.73;;
11747;SDS011;5931;48.832;9.072;2023-12-20T07:20:06;4.25;;;2.80;;
11747;SDS011;5931;48.832;9.072;2023-12-20T07:22:34;6.38;;;2.95;;
11747;SDS011;5931;48.832;9.072;2023-12-20T07:25:01;3.60;;;2.67;;
11747;SDS011;5931;48.832;9.072;2023-12-20T07:27:27;5.05;;;3.03;;
11747;SDS011;5931;48.832;9.072;2023-12-20T07:29:53;5.87;;;2.70;;
11747;SDS011;5931;48.832;9.072;2023-12-20T07:32:19;4.10;;;3.30;;
11747;SDS011;5931;48.832;9.072;2023-12-20T07:34:45;4.57;;;3.60;;
11747;SDS011;5931;48.832;9.072;2023-12-20T07:37:10;4.40;;;3.20;;
11747;SDS011;5931;48.832;9.072;2023-12-20T07:39:40;2.90;;;2.60;;
11747;SDS011;5931;48.832;9.072;2023-12-20T07:42:06;10.15;;;3.42;;
11747;SDS011;5931;48.832;9.072;2023-12-20T07:44:33;3.75;;;2.88;;
11747;SDS011;5931;48.832;9.072;2023-12-20T07:46:59;3.45;;;3.10;;
11747;SDS011;5931;48.832;9.072;2023-12-20T07:49:26;5.10;;;2.70;;
11747;SDS011;5931;48.832;9.072;2023-12-20T07:51:52;4.20;;;2.93;;
11747;SDS011;5931;48.832;9.072;2023-12-20T07:54:18;8.80;;;3.50;;
11747;SDS011;5931;48.832;9.072;2023-12-20T07:56:43;4.80;;;3.20;;
11747;SDS011;5931;48.832;9.072;2023-12-20T07:59:10;4.97;;;3.10;;
11747;SDS011;5931;48.832;9.072;2023-12-20T08:01:36;5.80;;;2.70;;
11747;SDS011;5931;48.832;9.072;2023-12-20T08:04:02;4.23;;;2.73;;
11747;SDS011;5931;48.832;9.072;2023-12-20T08:06:28;4.68;;;3.97;;
11747;SDS011;5931;48.832;9.072;2023-12-20T08:08:54;4.93;;;3.57;;
11747;SDS011;5931;48.832;9.072;2023-12-20T08:11:20;4.60;;;3.10;;
11747;SDS011;5931;48.832;9.072;2023-12-20T08:13:46;6.57;;;3.88;;
11747;SDS011;5931;48.832;9.072;2023-12-20T08:16:12;5.60;;;3.53;;
11747;SDS011;5931;48.832;9.072;2023-12-20T08:18:39;4.82;;;3.88;;
11747;SDS011;5931;48.832;9.072;2023-12-20T08:21:04;6.55;;;3.70;;
11747;SDS011;5931;48.832;9.072;2023-12-20T08:23:33;6.45;;;3.97;;
11747;SDS011;5931;48.832;9.072;2023-12-20T08:26:06;5.22;;;4.25;;
11747;SDS011;5931;48.832;9.072;2023-12-20T08:28:32;8.35;;;5.18;;
11747;SDS011;5931;48.832;9.072;2023-12-20T08:30:58;5.85;;;3.70;;
11747;SDS011;5931;48.832;9.072;2023-12-20T08:33:25;9.10;;;5.30;;
11747;SDS011;5931;48.832;9.072;2023-12-20T08:35:51;4.87;;;3.90;;
11747;SDS011;5931;48.832;9.072;2023-12-20T08:38:16;7.80;;;7.00;;
11747;SDS011;5931;48.832;9.072;2023-12-20T08:40:43;5.00;;;3.88;;
11747;SDS011;5931;48.832;9.072;2023-12-20T08:43:09;8.40;;;4.63;;
11747;SDS011;5931;48.832;9.072;2023-12-20T08:45:35;7.13;;;3.60;;
11747;SDS011;5931;48.832;9.072;2023-12-20T08:48:01;6.07;;;4.50;;
11747;SDS011;5931;48.832;9.072;2023-12-20T08:50:28;6.13;;;3.53;;
11747;SDS011;5931;48.832;9.072;2023-12-20T08:52:54;4.70;;;4.22;;
11747;SDS011;5931;48.832;9.072;2023-12-20T08:55:20;6.60;;;4.23;;
11747;SDS011;5931;48.832;9.072;2023-12-20T08:57:46;4.90;;;3.03;;
11747;SDS011;5931;48.832;9.072;2023-12-20T09:00:12;6.50;;;3.90;;
11747;SDS011;5931;48.832;9.072;2023-12-20T09:02:38;8.30;;;3.60;;
11747;SDS011;5931;48.832;9.072;2023-12-20T09:05:04;4.00;;;3.40;;
11747;SDS011;5931;48.832;9.072;2023-12-20T09:07:31;4.72;;;3.38;;
11747;SDS011;5931;48.832;9.072;2023-12-20T09:09:57;4.03;;;3.45;;
11747;SDS011;5931;48.832;9.072;2023-12-20T09:12:23;4.05;;;3.13;;
11747;SDS011;5931;48.832;9.072;2023-12-20T09:14:50;5.47;;;3.20;;
11747;SDS011;5931;48.832;9.072;2023-12-20T09:17:16;4.43;;;3.50;;
11747;SDS011;5931;48.832;9.072;2023-12-20T09:19:43;5.10;;;2.90;;
11747;SDS011;5931;48.832;9.072;2023-12-20T09:22:10;3.55;;;2.33;;
11747;SDS011;5931;48.832;9.072;2023-12-20T09:24:36;3.33;;;2.55;;
11747;SDS011;5931;48.832;9.072;2023-12-20T09:27:02;8.17;;;3.40;;
11747;SDS011;5931;48.832;9.072;2023-12-20T09:29:28;3.45;;;2.88;;
11747;SDS011;5931;48.832;9.072;2023-12-20T09:31:54;3.55;;;3.20;;
11747;SDS011;5931;48.832;9.072;2023-12-20T09:34:20;4.75;;;4.00;;
11747;SDS011;5931;48.832;9.072;2023-12-20T09:36:47;11.77;;;5.45;;
11747;SDS011;5931;48.832;9.072;2023-12-20T09:39:13;5.43;;;3.33;;
11747;SDS011;5931;48.832;9.072;2023-12-20T09:41:43;3.30;;;2.80;;
11747;SDS011;5931;48.832;9.072;2023-12-20T09:44:15;6.80;;;3.08;;
11747;SDS011;5931;48.832;9.072;2023-12-20T09:46:45;3.13;;;2.40;;
11747;SDS011;5931;48.832;9.072;2023-12-20T09:49:14;2.73;;;1.97;;
11747;SDS011;5931;48.832;9.072;2023-12-20T09:51:50;5.85;;;2.90;;
11747;SDS011;5931;48.832;9.072;2023-12-20T09:54:17;4.17;;;1.70;;
11747;SDS011;5931;48.832;9.072;2023-12-20T09:56:46;5.53;;;2.47;;
11747;SDS011;5931;48.832;9.072;2023-12-20T09:59:13;3.58;;;2.25;;
11747;SDS011;5931;48.832;9.072;2023-12-20T10:01:40;5.88;;;1.60;;
11747;SDS011;5931;48.832;9.072;2023-12-20T10:04:07;3.72;;;2.35;;
11747;SDS011;5931;48.832;9.072;2023-12-20T10:06:43;10.67;;;2.20;;
11747;SDS011;5931;48.832;9.072;2023-12-20T10:09:10;4.33;;;1.80;;
11747;SDS011;5931;48.832;9.072;2023-12-20T10:11:37;4.93;;;1.87;;
11747;SDS011;5931;48.832;9.072;2023-12-20T10:14:04;5.60;;;3.10;;
11747;SDS011;5931;48.832;9.072;2023-12-20T10:16:30;3.63;;;1.53;;
11747;SDS011;5931;48.832;9.072;2023-12-20T10:18:58;2.87;;;2.17;;
11747;SDS011;5931;48.832;9.072;2023-12-20T10:21:25;4.97;;;2.70;;
11747;SDS011;5931;48.832;9.072;2023-12-20T10:23:52;5.10;;;3.47;;
11747;SDS011;5931;48.832;9.072;2023-12-20T10:26:22;8.33;;;3.40;;
11747;SDS011;5931;48.832;9.072;2023-12-20T10:28:53;15.27;;;3.80;;
11747;SDS011;5931;48.832;9.072;2023-12-20T10:31:33;6.50;;;3.40;;
11747;SDS011;5931;48.832;9.072;2023-12-20T10:34:00;15.67;;;5.83;;
11747;SDS011;5931;48.832;9.072;2023-12-20T10:36:28;8.07;;;3.90;;
11747;SDS011;5931;48.832;9.072;2023-12-20T10:38:55;5.27;;;2.87;;
11747;SDS011;5931;48.832;9.072;2023-12-20T10:44:03;2.50;;;1.80;;
11747;SDS011;5931;48.832;9.072;2023-12-20T10:46:31;2.33;;;1.70;;
11747;SDS011;5931;48.832;9.072;2023-12-20T10:48:58;3.30;;;1.87;;
11747;SDS011;5931;48.832;9.072;2023-12-20T10:51:27;5.03;;;1.77;;
11747;SDS011;5931;48.832;9.072;2023-12-20T10:53:54;3.73;;;1.40;;
11747;SDS011;5931;48.832;9.072;2023-12-20T10:56:21;13.47;;;1.83;;
11747;SDS011;5931;48.832;9.072;2023-12-20T10:58:48;2.43;;;1.63;;
11747;SDS011;5931;48.832;9.072;2023-12-20T11:01:18;10.43;;;2.67;;
11747;SDS011;5931;48.832;9.072;2023-12-20T11:03:49;4.87;;;1.70;;
11747;SDS011;5931;48.832;9.072;2023-12-20T11:08:59;3.87;;;1.90;;
11747;SDS011;5931;48.832;9.072;2023-12-20T11:11:57;3.83;;;1.50;;
11747;SDS011;5931;48.832;9.072;2023-12-20T11:14:47;4.67;;;1.97;;
11747;SDS011;5931;48.832;9.072;2023-12-20T11:17:13;3.57;;;1.60;;
11747;SDS011;5931;48.832;9.072;2023-12-20T11:22:26;4.10;;;1.87;;
11747;SDS011;5931;48.832;9.072;2023-12-20T11:24:56;5.53;;;1.70;;
11747;SDS011;5931;48.832;9.072;2023-12-20T11:27:27;12.57;;;2.40;;
11747;SDS011;5931;48.832;9.072;2023-12-20T11:29:57;3.73;;;1.63;;
11747;SDS011;5931;48.832;9.072;2023-12-20T11:37:28;2.60;;;2.00;;
11747;SDS011;5931;48.832;9.072;2023-12-20T11:40:05;4.93;;;1.73;;
11747;SDS011;5931;48.832;9.072;2023-12-20T11:42:42;1.60;;;1.50;;
11747;SDS011;5931;48.832;9.072;2023-12-20T11:45:14;7.53;;;1.70;;
11747;SDS011;5931;48.832;9.072;2023-12-20T11:47:43;5.73;;;1.70;;
11747;SDS011;5931;48.832;9.072;2023-12-20T11:50:11;2.83;;;2.27;;
11747;SDS011;5931;48.832;9.072;2023-12-20T11:52:37;2.67;;;1.77;;
11747;SDS011;5931;48.832;9.072;2023-12-20T11:55:03;3.13;;;1.73;;
11747;SDS011;5931;48.832;9.072;2023-12-20T11:57:30;2.07;;;1.53;;
11747;SDS011;5931;48.832;9.072;2023-12-20T11:59:56;5.57;;;2.03;;
11747;SDS011;5931;48.832;9.072;2023-12-20T12:02:22;2.10;;;1.70;;
11747;SDS011;5931;48.832;9.072;2023-12-20T12:04:49;4.53;;;1.63;;
11747;SDS011;5931;48.832;9.072;2023-12-20T12:07:18;3.20;;;1.40;;
11747;SDS011;5931;48.832;9.072;2023-12-20T12:09:45;2.87;;;1.80;;
11747;SDS011;5931;48.832;9.072;2023-12-20T12:12:12;1.70;;;1.60;;
11747;SDS011;5931;48.832;9.072;2023-12-20T12:14:38;6.83;;;2.10;;
11747;SDS011;5931;48.832;9.072;2023-12-20T12:17:12;3.10;;;1.73;;
11747;SDS011;5931;48.832;9.072;2023-12-20T12:19:39;3.70;;;1.77;;
11747;SDS011;5931;48.832;9.072;2023-12-20T12:22:06;2.03;;;1.40;;
11747;SDS011;5931;48.832;9.072;2023-12-20T12:24:36;5.67;;;3.10;;
11747;SDS011;5931;48.832;9.072;2023-12-20T12:27:02;2.20;;;1.80;;
11747;SDS011;5931;48.832;9.072;2023-12-20T12:29:30;3.93;;;1.73;;
11747;SDS011;5931;48.832;9.072;2023-12-20T12:31:56;3.57;;;1.57;;
11747;SDS011;5931;48.832;9.072;2023-12-20T12:34:23;2.00;;;1.80;;
11747;SDS011;5931;48.832;9.072;2023-12-20T12:36:49;2.77;;;1.73;;
11747;SDS011;5931;48.832;9.072;2023-12-20T12:39:15;6.20;;;1.97;;
11747;SDS011;5931;48.832;9.072;2023-12-20T12:41:43;8.07;;;1.83;;
11747;SDS011;5931;48.832;9.072;2023-12-20T12:44:09;2.80;;;1.33;;
11747;SDS011;5931;48.832;9.072;2023-12-20T12:46:35;3.73;;;1.67;;
11747;SDS011;5931;48.832;9.072;2023-12-20T12:49:01;6.80;;;1.90;;
11747;SDS011;5931;48.832;9.072;2023-12-20T12:51:27;4.30;;;1.77;;
11747;SDS011;5931;48.832;9.072;2023-12-20T12:53:52;4.67;;;2.70;;
11747;SDS011;5931;48.832;9.072;2023-12-20T12:56:18;1.87;;;1.60;;
11747;SDS011;5931;48.832;9.072;2023-12-20T12:58:44;2.20;;;1.40;;
11747;SDS011;5931;48.832;9.072;2023-12-20T13:01:10;7.80;;;2.03;;
11747;SDS011;5931;48.832;9.072;2023-12-20T13:03:36;5.13;;;1.50;;
11747;SDS011;5931;48.832;9.072;2023-12-20T13:06:02;5.33;;;1.60;;
11747;SDS011;5931;48.832;9.072;2023-12-20T13:08:31;2.70;;;1.30;;
11747;SDS011;5931;48.832;9.072;2023-12-20T13:10:57;8.63;;;1.57;;
11747;SDS011;5931;48.832;9.072;2023-12-20T13:13:26;3.00;;;1.50;;
11747;SDS011;5931;48.832;9.072;2023-12-20T13:15:52;2.40;;;1.50;;
11747;SDS011;5931;48.832;9.072;2023-12-20T13:18:20;1.63;;;1.10;;
11747;SDS011;5931;48.832;9.072;2023-12-20T13:20:47;5.30;;;1.80;;
11747;SDS011;5931;48.832;9.072;2023-12-20T13:23:13;3.10;;;1.37;;
11747;SDS011;5931;48.832;9.072;2023-12-20T13:25:39;3.50;;;1.70;;
11747;SDS011;5931;48.832;9.072;2023-12-20T13:28:06;5.00;;;1.70;;
11747;SDS011;5931;48.832;9.072;2023-12-20T13:30:32;3.00;;;1.57;;
11747;SDS011;5931;48.832;9.072;2023-12-20T13:32:58;5.60;;;1.80;;
11747;SDS011;5931;48.832;9.072;2023-12-20T13:35:24;4.13;;;1.40;;
11747;SDS011;5931;48.832;9.072;2023-12-20T13:37:50;2.70;;;1.40;;
11747;SDS011;5931;48.832;9.072;2023-12-20T13:40:17;3.57;;;1.50;;
11747;SDS011;5931;48.832;9.072;2023-12-20T13:42:43;2.60;;;1.60;;
11747;SDS011;5931;48.832;9.072;2023-12-20T13:45:09;4.23;;;1.73;;
11747;SDS011;5931;48.832;9.072;2023-12-20T13:47:35;6.80;;;1.90;;
11747;SDS011;5931;48.832;9.072;2023-12-20T13:50:02;10.53;;;1.83;;
11747;SDS011;5931;48.832;9.072;2023-12-20T13:52:29;1.40;;;1.20;;
11747;SDS011;5931;48.832;9.072;2023-12-20T13:54:55;2.00;;;1.40;;
11747;SDS011;5931;48.832;9.072;2023-12-20T13:57:21;2.53;;;1.40;;
11747;SDS011;5931;48.832;9.072;2023-12-20T13:59:47;2.37;;;1.47;;
11747;SDS011;5931;48.832;9.072;2023-12-20T14:02:13;2.23;;;1.63;;
11747;SDS011;5931;48.832;9.072;2023-12-20T14:04:39;1.70;;;1.50;;
11747;SDS011;5931;48.832;9.072;2023-12-20T14:07:06;5.90;;;1.73;;
11747;SDS011;5931;48.832;9.072;2023-12-20T14:09:33;3.93;;;1.87;;
11747;SDS011;5931;48.832;9.072;2023-12-20T14:11:59;5.03;;;2.07;;
11747;SDS011;5931;48.832;9.072;2023-12-20T14:14:25;6.13;;;2.20;;
11747;SDS011;5931;48.832;9.072;2023-12-20T14:16:51;10.90;;;1.80;;
11747;SDS011;5931;48.832;9.072;2023-12-20T14:19:17;1.57;;;1.27;;
11747;SDS011;5931;48.832;9.072;2023-12-20T14:21:43;5.03;;;1.63;;
11747;SDS011;5931;48.832;9.072;2023-12-20T14:24:13;3.70;;;2.00;;
11747;SDS011;5931;48.832;9.072;2023-12-20T14:26:40;2.20;;;1.80;;
11747;SDS011;5931;48.832;9.072;2023-12-20T14:29:07;5.83;;;1.60;;
11747;SDS011;5931;48.832;9.072;2023-12-20T14:31:33;1.97;;;1.60;;
11747;SDS011;5931;48.832;9.072;2023-12-20T14:33:59;2.20;;;1.93;;
11747;SDS011;5931;48.832;9.072;2023-12-20T14:36:29;3.63;;;2.10;;
11747;SDS011;5931;48.832;9.072;2023-12-20T14:38:56;4.93;;;2.20;;
11747;SDS011;5931;48.832;9.072;2023-12-20T14:41:22;4.05;;;1.75;;
11747;SDS011;5931;48.832;9.072;2023-12-20T14:43:50;2.70;;;2.50;;
11747;SDS011;5931;48.832;9.072;2023-12-20T14:46:19;3.63;;;1.73;;
11747;SDS011;5931;48.832;9.072;2023-12-20T14:48:45;3.77;;;1.80;;
11747;SDS011;5931;48.832;9.072;2023-12-20T14:51:11;2.13;;;1.33;;
11747;SDS011;5931;48.832;9.072;2023-12-20T14:53:38;4.07;;;1.90;;
11747;SDS011;5931;48.832;9.072;2023-12-20T14:56:04;4.87;;;1.93;;
11747;SDS011;5931;48.832;9.072;2023-12-20T14:58:31;2.50;;;1.57;;
11747;SDS011;5931;48.832;9.072;2023-12-20T15:00:57;4.23;;;2.13;;
11747;SDS011;5931;48.832;9.072;2023-12-20T15:03:23;4.78;;;1.90;;
11747;SDS011;5931;48.832;9.072;2023-12-20T15:05:50;1.80;;;1.57;;
11747;SDS011;5931;48.832;9.072;2023-12-20T15:08:15;2.30;;;1.83;;
11747;SDS011;5931;48.832;9.072;2023-12-20T15:10:41;2.90;;;1.50;;